Alamo, Nevada
Current Conditions -  °F | °C
As of 12:58 PM on Thursday 18 Dec 2014 (Local Time) from KINS Reporting Station
Clear Clear  
Wind Chill: 50°   Ceiling: Unl
Heat Index: 50°   Visibility: 10mi
Dew Point: 37°   Wind: 1mph
Humidity: 61%   Direction: 200°SSW
Pressure: 30.14"   Gusts: NA
Location:  37.36°N, 115.16°W
Report Text: KINS 182058Z AUTO 20001KT 10SM CLR 10/03 A3014 RMK AO2 SLP196 T01010029 57015
Loading
Personal Weather Stations






























Interactive Weather Map New forecast layout! Learn more

10-Day Weather Forecast

Advertisements
Track Severe Weather on mobile